sensor_id;sensor_type;location;lat;lon;timestamp;temperature;humidity
56123;DHT22;42426;46.104;19.656;2022-10-31T00:03:39;333.30;2329.60
56123;DHT22;42426;46.104;19.656;2022-10-31T00:06:35;333.30;2329.60
56123;DHT22;42426;46.104;19.656;2022-10-31T00:09:03;333.20;2329.60
56123;DHT22;42426;46.104;19.656;2022-10-31T00:11:39;333.30;2329.60
56123;DHT22;42426;46.104;19.656;2022-10-31T00:14:05;333.30;2329.60
56123;DHT22;42426;46.104;19.656;2022-10-31T00:16:31;333.30;2329.60
56123;DHT22;42426;46.104;19.656;2022-10-31T00:19:02;333.30;2329.60
56123;DHT22;42426;46.104;19.656;2022-10-31T00:21:30;333.30;2329.60
56123;DHT22;42426;46.104;19.656;2022-10-31T00:23:57;333.30;2329.60
56123;DHT22;42426;46.104;19.656;2022-10-31T00:26:23;333.30;2329.60
56123;DHT22;42426;46.104;19.656;2022-10-31T00:28:50;333.30;2329.60
56123;DHT22;42426;46.104;19.656;2022-10-31T00:31:16;333.30;2329.60
56123;DHT22;42426;46.104;19.656;2022-10-31T00:33:42;333.30;2329.60
56123;DHT22;42426;46.104;19.656;2022-10-31T00:36:24;333.30;2329.60
56123;DHT22;42426;46.104;19.656;2022-10-31T00:38:50;333.30;2329.60
56123;DHT22;42426;46.104;19.656;2022-10-31T00:41:21;333.20;2329.60
56123;DHT22;42426;46.104;19.656;2022-10-31T00:43:47;333.20;2329.60
56123;DHT22;42426;46.104;19.656;2022-10-31T00:46:12;333.20;2329.60
56123;DHT22;42426;46.104;19.656;2022-10-31T00:52:00;333.10;2329.60
56123;DHT22;42426;46.104;19.656;2022-10-31T00:55:01;333.10;2329.60
56123;DHT22;42426;46.104;19.656;2022-10-31T00:57:26;333.10;2329.60
56123;DHT22;42426;46.104;19.656;2022-10-31T01:00:03;333.10;2329.60
56123;DHT22;42426;46.104;19.656;2022-10-31T01:02:29;333.00;2329.60
56123;DHT22;42426;46.104;19.656;2022-10-31T01:04:57;333.10;2329.60
56123;DHT22;42426;46.104;19.656;2022-10-31T01:07:23;333.10;2329.60
56123;DHT22;42426;46.104;19.656;2022-10-31T01:09:50;333.10;2329.60
56123;DHT22;42426;46.104;19.656;2022-10-31T01:12:15;333.10;2329.60
56123;DHT22;42426;46.104;19.656;2022-10-31T01:14:45;333.10;2329.60
56123;DHT22;42426;46.104;19.656;2022-10-31T01:20:41;332.90;2329.60
56123;DHT22;42426;46.104;19.656;2022-10-31T01:23:07;332.90;2329.60
56123;DHT22;42426;46.104;19.656;2022-10-31T01:25:35;333.00;2329.60
56123;DHT22;42426;46.104;19.656;2022-10-31T01:28:01;333.00;2329.60
56123;DHT22;42426;46.104;19.656;2022-10-31T01:33:30;332.90;2329.60
56123;DHT22;42426;46.104;19.656;2022-10-31T01:35:56;332.90;2329.60
56123;DHT22;42426;46.104;19.656;2022-10-31T01:38:23;332.90;2329.60
56123;DHT22;42426;46.104;19.656;2022-10-31T01:40:49;332.90;2329.60
56123;DHT22;42426;46.104;19.656;2022-10-31T01:43:15;332.90;2329.60
56123;DHT22;42426;46.104;19.656;2022-10-31T01:45:52;332.90;2329.60
56123;DHT22;42426;46.104;19.656;2022-10-31T01:48:21;332.90;2329.60
56123;DHT22;42426;46.104;19.656;2022-10-31T01:50:52;332.90;2329.60
56123;DHT22;42426;46.104;19.656;2022-10-31T01:53:19;333.00;2329.60
56123;DHT22;42426;46.104;19.656;2022-10-31T01:55:46;332.90;2329.60
56123;DHT22;42426;46.104;19.656;2022-10-31T01:58:25;333.00;2329.60
56123;DHT22;42426;46.104;19.656;2022-10-31T02:00:57;333.00;2329.60
56123;DHT22;42426;46.104;19.656;2022-10-31T02:03:24;332.90;2329.60
56123;DHT22;42426;46.104;19.656;2022-10-31T02:05:56;333.00;2329.60
56123;DHT22;42426;46.104;19.656;2022-10-31T02:08:28;333.00;2329.60
56123;DHT22;42426;46.104;19.656;2022-10-31T02:10:59;333.00;2329.60
56123;DHT22;42426;46.104;19.656;2022-10-31T02:13:28;333.00;2329.60
56123;DHT22;42426;46.104;19.656;2022-10-31T02:15:57;333.00;2329.60
56123;DHT22;42426;46.104;19.656;2022-10-31T02:18:25;333.00;2329.60
56123;DHT22;42426;46.104;19.656;2022-10-31T02:40:23;332.90;2329.60
56123;DHT22;42426;46.104;19.656;2022-10-31T02:43:02;333.00;2329.60
56123;DHT22;42426;46.104;19.656;2022-10-31T02:45:33;332.90;2329.60
56123;DHT22;42426;46.104;19.656;2022-10-31T02:48:09;333.00;2329.60
56123;DHT22;42426;46.104;19.656;2022-10-31T02:50:45;333.00;2329.60
56123;DHT22;42426;46.104;19.656;2022-10-31T02:53:34;333.00;2329.60
56123;DHT22;42426;46.104;19.656;2022-10-31T02:56:19;333.00;2329.60
56123;DHT22;42426;46.104;19.656;2022-10-31T03:01:54;333.00;2329.60
56123;DHT22;42426;46.104;19.656;2022-10-31T03:18:53;333.00;2329.60
56123;DHT22;42426;46.104;19.656;2022-10-31T03:21:43;332.90;2329.60
56123;DHT22;42426;46.104;19.656;2022-10-31T03:24:12;332.90;2329.60
56123;DHT22;42426;46.104;19.656;2022-10-31T03:26:42;332.90;2329.60
56123;DHT22;42426;46.104;19.656;2022-10-31T03:29:28;332.90;2329.60
56123;DHT22;42426;46.104;19.656;2022-10-31T03:32:06;332.90;2329.60
56123;DHT22;42426;46.104;19.656;2022-10-31T03:34:42;332.80;2329.60
56123;DHT22;42426;46.104;19.656;2022-10-31T03:37:15;332.80;2329.60
56123;DHT22;42426;46.104;19.656;2022-10-31T03:39:43;332.80;2329.60
56123;DHT22;42426;46.104;19.656;2022-10-31T03:42:18;332.80;2329.60
56123;DHT22;42426;46.104;19.656;2022-10-31T03:45:12;332.80;2329.60
56123;DHT22;42426;46.104;19.656;2022-10-31T03:47:40;332.80;2329.60
56123;DHT22;42426;46.104;19.656;2022-10-31T03:50:14;332.80;2329.60
56123;DHT22;42426;46.104;19.656;2022-10-31T03:52:57;332.80;2329.60
56123;DHT22;42426;46.104;19.656;2022-10-31T03:55:31;332.80;2329.60
56123;DHT22;42426;46.104;19.656;2022-10-31T03:58:23;308.10;2304.00
56123;DHT22;42426;46.104;19.656;2022-10-31T04:00:51;308.10;2304.00
56123;DHT22;42426;46.104;19.656;2022-10-31T04:03:27;308.10;2304.00
56123;DHT22;42426;46.104;19.656;2022-10-31T04:05:56;308.10;2304.00
56123;DHT22;42426;46.104;19.656;2022-10-31T04:08:28;308.10;2304.00
56123;DHT22;42426;46.104;19.656;2022-10-31T04:10:56;308.10;2304.00
56123;DHT22;42426;46.104;19.656;2022-10-31T04:13:27;308.10;2304.00
56123;DHT22;42426;46.104;19.656;2022-10-31T04:16:28;308.10;2304.00
56123;DHT22;42426;46.104;19.656;2022-10-31T04:18:54;308.10;2304.00
56123;DHT22;42426;46.104;19.656;2022-10-31T04:21:27;308.10;2304.00
56123;DHT22;42426;46.104;19.656;2022-10-31T04:23:53;308.10;2304.00
56123;DHT22;42426;46.104;19.656;2022-10-31T04:26:19;308.10;2304.00
56123;DHT22;42426;46.104;19.656;2022-10-31T04:28:46;308.00;2304.00
56123;DHT22;42426;46.104;19.656;2022-10-31T04:31:12;308.00;2304.00
56123;DHT22;42426;46.104;19.656;2022-10-31T04:33:38;308.00;2304.00
56123;DHT22;42426;46.104;19.656;2022-10-31T04:36:04;308.00;2304.00
56123;DHT22;42426;46.104;19.656;2022-10-31T04:38:30;308.10;2304.00
56123;DHT22;42426;46.104;19.656;2022-10-31T04:40:56;308.10;2304.00
56123;DHT22;42426;46.104;19.656;2022-10-31T04:43:48;308.10;2304.00
56123;DHT22;42426;46.104;19.656;2022-10-31T04:46:14;308.10;2304.00
56123;DHT22;42426;46.104;19.656;2022-10-31T04:48:56;308.00;2304.00
56123;DHT22;42426;46.104;19.656;2022-10-31T04:51:22;308.10;2304.00
56123;DHT22;42426;46.104;19.656;2022-10-31T04:53:48;308.10;2304.00
56123;DHT22;42426;46.104;19.656;2022-10-31T04:56:15;308.10;2304.00
56123;DHT22;42426;46.104;19.656;2022-10-31T04:58:40;308.00;2304.00
56123;DHT22;42426;46.104;19.656;2022-10-31T05:01:10;308.00;2304.00
56123;DHT22;42426;46.104;19.656;2022-10-31T05:03:36;308.10;2304.00
56123;DHT22;42426;46.104;19.656;2022-10-31T05:06:05;308.10;2304.00
56123;DHT22;42426;46.104;19.656;2022-10-31T05:08:35;308.10;2304.00
56123;DHT22;42426;46.104;19.656;2022-10-31T05:11:02;308.10;2304.00
56123;DHT22;42426;46.104;19.656;2022-10-31T05:13:28;308.10;2304.00
56123;DHT22;42426;46.104;19.656;2022-10-31T05:16:06;308.10;2304.00
56123;DHT22;42426;46.104;19.656;2022-10-31T05:18:32;308.10;2304.00
56123;DHT22;42426;46.104;19.656;2022-10-31T05:21:04;308.10;2304.00
56123;DHT22;42426;46.104;19.656;2022-10-31T05:23:30;308.10;2304.00
56123;DHT22;42426;46.104;19.656;2022-10-31T05:25:56;332.80;2329.60
56123;DHT22;42426;46.104;19.656;2022-10-31T05:28:21;308.10;2304.00
56123;DHT22;42426;46.104;19.656;2022-10-31T05:30:47;308.10;2304.00
56123;DHT22;42426;46.104;19.656;2022-10-31T05:33:13;308.10;2304.00
56123;DHT22;42426;46.104;19.656;2022-10-31T05:35:39;308.00;2304.00
56123;DHT22;42426;46.104;19.656;2022-10-31T05:38:09;308.00;2304.00
56123;DHT22;42426;46.104;19.656;2022-10-31T05:40:35;308.00;2304.00
56123;DHT22;42426;46.104;19.656;2022-10-31T05:43:01;308.10;2304.00
56123;DHT22;42426;46.104;19.656;2022-10-31T05:45:27;308.00;2304.00
56123;DHT22;42426;46.104;19.656;2022-10-31T05:47:58;308.10;2304.00
56123;DHT22;42426;46.104;19.656;2022-10-31T05:50:30;308.10;2304.00
56123;DHT22;42426;46.104;19.656;2022-10-31T05:53:03;308.10;2304.00
56123;DHT22;42426;46.104;19.656;2022-10-31T05:55:30;308.10;2304.00
56123;DHT22;42426;46.104;19.656;2022-10-31T05:58:10;308.10;2304.00
56123;DHT22;42426;46.104;19.656;2022-10-31T06:00:37;308.10;2304.00
56123;DHT22;42426;46.104;19.656;2022-10-31T06:03:10;308.00;2304.00
56123;DHT22;42426;46.104;19.656;2022-10-31T06:05:36;308.00;2304.00
56123;DHT22;42426;46.104;19.656;2022-10-31T06:08:02;308.00;2304.00
56123;DHT22;42426;46.104;19.656;2022-10-31T06:10:28;308.00;2304.00
56123;DHT22;42426;46.104;19.656;2022-10-31T06:12:54;308.00;2304.00
56123;DHT22;42426;46.104;19.656;2022-10-31T06:15:19;308.10;2304.00
56123;DHT22;42426;46.104;19.656;2022-10-31T06:20:57;308.10;2304.00
56123;DHT22;42426;46.104;19.656;2022-10-31T06:23:23;308.00;2304.00
56123;DHT22;42426;46.104;19.656;2022-10-31T06:25:50;308.00;2304.00
56123;DHT22;42426;46.104;19.656;2022-10-31T06:28:16;308.00;2304.00
56123;DHT22;42426;46.104;19.656;2022-10-31T06:30:43;308.00;2304.00
56123;DHT22;42426;46.104;19.656;2022-10-31T06:33:09;308.10;2304.00
56123;DHT22;42426;46.104;19.656;2022-10-31T06:35:36;308.10;2304.00
56123;DHT22;42426;46.104;19.656;2022-10-31T06:38:02;308.10;2304.00
56123;DHT22;42426;46.104;19.656;2022-10-31T06:40:43;308.10;2304.00
56123;DHT22;42426;46.104;19.656;2022-10-31T06:43:09;308.10;2304.00
56123;DHT22;42426;46.104;19.656;2022-10-31T06:45:36;308.10;2304.00
56123;DHT22;42426;46.104;19.656;2022-10-31T06:48:02;308.10;2304.00
56123;DHT22;42426;46.104;19.656;2022-10-31T06:50:28;308.00;2304.00
56123;DHT22;42426;46.104;19.656;2022-10-31T06:52:56;308.10;2304.00
56123;DHT22;42426;46.104;19.656;2022-10-31T06:55:23;308.00;2304.00
56123;DHT22;42426;46.104;19.656;2022-10-31T06:57:52;308.10;2304.00
56123;DHT22;42426;46.104;19.656;2022-10-31T07:00:19;308.10;2304.00
56123;DHT22;42426;46.104;19.656;2022-10-31T07:02:56;308.10;2304.00
56123;DHT22;42426;46.104;19.656;2022-10-31T07:05:23;308.00;2304.00
56123;DHT22;42426;46.104;19.656;2022-10-31T07:07:53;308.00;2304.00
56123;DHT22;42426;46.104;19.656;2022-10-31T07:10:19;308.00;2304.00
56123;DHT22;42426;46.104;19.656;2022-10-31T07:12:45;308.00;2304.00
56123;DHT22;42426;46.104;19.656;2022-10-31T07:15:11;308.00;2304.00
56123;DHT22;42426;46.104;19.656;2022-10-31T07:17:37;308.00;2304.00
56123;DHT22;42426;46.104;19.656;2022-10-31T07:20:04;308.10;2304.00
56123;DHT22;42426;46.104;19.656;2022-10-31T07:22:37;308.00;2304.00
56123;DHT22;42426;46.104;19.656;2022-10-31T07:25:03;308.00;2304.00
56123;DHT22;42426;46.104;19.656;2022-10-31T07:27:38;308.00;2304.00
56123;DHT22;42426;46.104;19.656;2022-10-31T07:30:05;308.00;2304.00
56123;DHT22;42426;46.104;19.656;2022-10-31T07:32:42;308.10;2304.00
56123;DHT22;42426;46.104;19.656;2022-10-31T07:35:10;308.10;2304.00
56123;DHT22;42426;46.104;19.656;2022-10-31T07:37:36;308.10;2304.00
56123;DHT22;42426;46.104;19.656;2022-10-31T07:40:03;308.10;2304.00
56123;DHT22;42426;46.104;19.656;2022-10-31T07:42:38;308.00;2304.00
56123;DHT22;42426;46.104;19.656;2022-10-31T07:45:05;308.00;2304.00
56123;DHT22;42426;46.104;19.656;2022-10-31T07:47:43;308.00;2304.00
56123;DHT22;42426;46.104;19.656;2022-10-31T07:50:11;308.00;2304.00
56123;DHT22;42426;46.104;19.656;2022-10-31T07:52:37;308.10;2304.00
56123;DHT22;42426;46.104;19.656;2022-10-31T07:55:04;308.10;2304.00
56123;DHT22;42426;46.104;19.656;2022-10-31T07:57:37;308.10;2304.00
56123;DHT22;42426;46.104;19.656;2022-10-31T08:00:07;308.10;2304.00
56123;DHT22;42426;46.104;19.656;2022-10-31T08:02:41;308.10;2304.00
56123;DHT22;42426;46.104;19.656;2022-10-31T08:05:07;308.10;2304.00
56123;DHT22;42426;46.104;19.656;2022-10-31T08:07:36;332.80;2329.60
56123;DHT22;42426;46.104;19.656;2022-10-31T08:10:03;332.80;2329.60
56123;DHT22;42426;46.104;19.656;2022-10-31T08:12:30;332.80;2329.60
56123;DHT22;42426;46.104;19.656;2022-10-31T08:14:56;308.10;2304.00
56123;DHT22;42426;46.104;19.656;2022-10-31T08:17:21;332.80;2329.60
56123;DHT22;42426;46.104;19.656;2022-10-31T08:19:48;308.10;2304.00
56123;DHT22;42426;46.104;19.656;2022-10-31T08:22:14;308.10;2304.00
56123;DHT22;42426;46.104;19.656;2022-10-31T08:24:40;308.10;2304.00
56123;DHT22;42426;46.104;19.656;2022-10-31T08:27:05;308.10;2304.00
56123;DHT22;42426;46.104;19.656;2022-10-31T08:29:31;308.10;2304.00
56123;DHT22;42426;46.104;19.656;2022-10-31T08:31:57;308.10;2304.00
56123;DHT22;42426;46.104;19.656;2022-10-31T08:34:24;308.10;2304.00
56123;DHT22;42426;46.104;19.656;2022-10-31T08:36:50;332.80;2329.60
56123;DHT22;42426;46.104;19.656;2022-10-31T08:39:15;332.80;2329.60
56123;DHT22;42426;46.104;19.656;2022-10-31T08:41:41;332.80;2329.60
56123;DHT22;42426;46.104;19.656;2022-10-31T08:44:07;332.80;2329.60
56123;DHT22;42426;46.104;19.656;2022-10-31T08:46:35;332.80;2329.60
56123;DHT22;42426;46.104;19.656;2022-10-31T08:49:01;308.10;2304.00
56123;DHT22;42426;46.104;19.656;2022-10-31T08:51:27;332.80;2329.60
56123;DHT22;42426;46.104;19.656;2022-10-31T08:53:52;332.80;2329.60
56123;DHT22;42426;46.104;19.656;2022-10-31T08:56:18;332.90;2329.60
56123;DHT22;42426;46.104;19.656;2022-10-31T08:58:44;332.90;2329.60
56123;DHT22;42426;46.104;19.656;2022-10-31T09:01:10;332.90;2329.60
56123;DHT22;42426;46.104;19.656;2022-10-31T09:03:35;332.90;2329.60
56123;DHT22;42426;46.104;19.656;2022-10-31T09:06:02;333.00;2329.60
56123;DHT22;42426;46.104;19.656;2022-10-31T09:08:32;332.90;2329.60
56123;DHT22;42426;46.104;19.656;2022-10-31T09:10:59;332.90;2329.60
56123;DHT22;42426;46.104;19.656;2022-10-31T09:13:25;333.00;2329.60
56123;DHT22;42426;46.104;19.656;2022-10-31T09:15:51;333.00;2329.60
56123;DHT22;42426;46.104;19.656;2022-10-31T09:18:19;333.10;2329.60
56123;DHT22;42426;46.104;19.656;2022-10-31T09:20:46;333.10;2329.60
56123;DHT22;42426;46.104;19.656;2022-10-31T09:23:21;333.10;2329.60
56123;DHT22;42426;46.104;19.656;2022-10-31T09:25:48;333.10;2329.60
56123;DHT22;42426;46.104;19.656;2022-10-31T09:28:16;333.10;2329.60
56123;DHT22;42426;46.104;19.656;2022-10-31T09:30:46;333.10;2329.60
56123;DHT22;42426;46.104;19.656;2022-10-31T09:33:13;333.00;2329.60
56123;DHT22;42426;46.104;19.656;2022-10-31T09:35:40;333.40;2329.60
56123;DHT22;42426;46.104;19.656;2022-10-31T09:38:12;333.10;2329.60
56123;DHT22;42426;46.104;19.656;2022-10-31T09:40:55;333.10;2329.60
56123;DHT22;42426;46.104;19.656;2022-10-31T09:49:28;333.10;2329.60
56123;DHT22;42426;46.104;19.656;2022-10-31T09:52:20;333.10;2329.60
56123;DHT22;42426;46.104;19.656;2022-10-31T09:57:39;333.10;2329.60
56123;DHT22;42426;46.104;19.656;2022-10-31T10:00:15;333.10;2329.60
56123;DHT22;42426;46.104;19.656;2022-10-31T10:02:44;333.20;2329.60
56123;DHT22;42426;46.104;19.656;2022-10-31T10:05:16;333.20;2329.60
56123;DHT22;42426;46.104;19.656;2022-10-31T10:08:08;333.20;2329.60
56123;DHT22;42426;46.104;19.656;2022-10-31T10:13:36;333.20;2329.60
56123;DHT22;42426;46.104;19.656;2022-10-31T10:16:24;333.20;2329.60
56123;DHT22;42426;46.104;19.656;2022-10-31T10:30:22;333.30;2329.60
56123;DHT22;42426;46.104;19.656;2022-10-31T10:32:52;333.20;2329.60
56123;DHT22;42426;46.104;19.656;2022-10-31T10:37:56;333.30;2329.60
56123;DHT22;42426;46.104;19.656;2022-10-31T10:40:27;333.30;2329.60
56123;DHT22;42426;46.104;19.656;2022-10-31T10:54:40;333.30;2329.60
56123;DHT22;42426;46.104;19.656;2022-10-31T11:00:15;333.40;2329.60
56123;DHT22;42426;46.104;19.656;2022-10-31T11:02:42;333.40;2329.60
56123;DHT22;42426;46.104;19.656;2022-10-31T11:05:24;333.40;2329.60
56123;DHT22;42426;46.104;19.656;2022-10-31T11:07:51;333.40;2329.60
56123;DHT22;42426;46.104;19.656;2022-10-31T11:10:18;333.40;2329.60
56123;DHT22;42426;46.104;19.656;2022-10-31T11:15:26;333.60;2329.60
56123;DHT22;42426;46.104;19.656;2022-10-31T11:17:56;333.60;2329.60
56123;DHT22;42426;46.104;19.656;2022-10-31T11:20:35;333.60;2329.60
56123;DHT22;42426;46.104;19.656;2022-10-31T11:23:04;333.60;2329.60
56123;DHT22;42426;46.104;19.656;2022-10-31T11:25:31;333.60;2329.60
56123;DHT22;42426;46.104;19.656;2022-10-31T11:28:09;333.70;2329.60
56123;DHT22;42426;46.104;19.656;2022-10-31T11:30:53;333.70;2329.60
56123;DHT22;42426;46.104;19.656;2022-10-31T11:33:30;333.70;2329.60
56123;DHT22;42426;46.104;19.656;2022-10-31T11:35:57;333.70;2329.60
56123;DHT22;42426;46.104;19.656;2022-10-31T11:38:28;333.60;2329.60
56123;DHT22;42426;46.104;19.656;2022-10-31T11:41:17;333.60;2329.60
56123;DHT22;42426;46.104;19.656;2022-10-31T11:43:55;333.70;2329.60
56123;DHT22;42426;46.104;19.656;2022-10-31T11:48:56;333.70;2329.60
56123;DHT22;42426;46.104;19.656;2022-10-31T11:51:26;333.70;2329.60
56123;DHT22;42426;46.104;19.656;2022-10-31T11:53:55;333.70;2329.60
56123;DHT22;42426;46.104;19.656;2022-10-31T11:56:22;333.70;2329.60
56123;DHT22;42426;46.104;19.656;2022-10-31T11:59:03;358.40;2329.60
56123;DHT22;42426;46.104;19.656;2022-10-31T12:01:31;358.40;2329.60
56123;DHT22;42426;46.104;19.656;2022-10-31T12:04:10;358.40;2329.60
56123;DHT22;42426;46.104;19.656;2022-10-31T12:06:41;358.40;2329.60
56123;DHT22;42426;46.104;19.656;2022-10-31T12:09:17;358.40;2329.60
56123;DHT22;42426;46.104;19.656;2022-10-31T12:14:33;358.50;2329.60
56123;DHT22;42426;46.104;19.656;2022-10-31T12:17:19;358.50;2329.60
56123;DHT22;42426;46.104;19.656;2022-10-31T12:23:19;358.50;2329.60
56123;DHT22;42426;46.104;19.656;2022-10-31T12:39:38;358.60;2329.60
56123;DHT22;42426;46.104;19.656;2022-10-31T12:50:58;358.60;2329.60
56123;DHT22;42426;46.104;19.656;2022-10-31T12:58:54;358.70;2329.60
56123;DHT22;42426;46.104;19.656;2022-10-31T13:04:05;358.70;2329.60
56123;DHT22;42426;46.104;19.656;2022-10-31T13:06:40;358.70;2329.60
56123;DHT22;42426;46.104;19.656;2022-10-31T13:09:12;358.80;2329.60
56123;DHT22;42426;46.104;19.656;2022-10-31T13:12:12;358.80;2329.60
56123;DHT22;42426;46.104;19.656;2022-10-31T13:14:55;358.80;2329.60
56123;DHT22;42426;46.104;19.656;2022-10-31T13:17:25;358.80;2329.60
56123;DHT22;42426;46.104;19.656;2022-10-31T13:20:00;358.80;2329.60
56123;DHT22;42426;46.104;19.656;2022-10-31T13:22:34;358.90;2329.60
56123;DHT22;42426;46.104;19.656;2022-10-31T13:25:16;358.90;2329.60
56123;DHT22;42426;46.104;19.656;2022-10-31T13:27:55;358.90;2329.60
56123;DHT22;42426;46.104;19.656;2022-10-31T13:30:24;358.90;2329.60
56123;DHT22;42426;46.104;19.656;2022-10-31T13:33:16;358.90;2329.60
56123;DHT22;42426;46.104;19.656;2022-10-31T13:44:06;358.90;2329.60
56123;DHT22;42426;46.104;19.656;2022-10-31T13:46:39;358.90;2329.60
56123;DHT22;42426;46.104;19.656;2022-10-31T13:54:55;358.90;2329.60
56123;DHT22;42426;46.104;19.656;2022-10-31T13:57:43;358.80;2329.60
56123;DHT22;42426;46.104;19.656;2022-10-31T14:00:24;358.80;2329.60
56123;DHT22;42426;46.104;19.656;2022-10-31T14:02:56;358.80;2329.60
56123;DHT22;42426;46.104;19.656;2022-10-31T14:05:24;358.80;2329.60
56123;DHT22;42426;46.104;19.656;2022-10-31T14:07:52;358.80;2329.60
56123;DHT22;42426;46.104;19.656;2022-10-31T14:10:28;358.80;2329.60
56123;DHT22;42426;46.104;19.656;2022-10-31T14:13:07;358.70;2329.60
56123;DHT22;42426;46.104;19.656;2022-10-31T14:15:34;358.70;2329.60
56123;DHT22;42426;46.104;19.656;2022-10-31T14:18:05;358.70;2329.60
56123;DHT22;42426;46.104;19.656;2022-10-31T14:20:44;358.70;2329.60
56123;DHT22;42426;46.104;19.656;2022-10-31T14:28:43;358.70;2329.60
56123;DHT22;42426;46.104;19.656;2022-10-31T14:31:44;358.60;2329.60
56123;DHT22;42426;46.104;19.656;2022-10-31T14:50:54;358.50;2329.60
56123;DHT22;42426;46.104;19.656;2022-10-31T14:55:57;358.50;2329.60
56123;DHT22;42426;46.104;19.656;2022-10-31T14:58:43;358.50;2329.60
56123;DHT22;42426;46.104;19.656;2022-10-31T15:01:24;358.50;2329.60
56123;DHT22;42426;46.104;19.656;2022-10-31T15:03:52;358.50;2329.60
56123;DHT22;42426;46.104;19.656;2022-10-31T15:06:21;358.50;2329.60
56123;DHT22;42426;46.104;19.656;2022-10-31T15:08:52;358.50;2329.60
56123;DHT22;42426;46.104;19.656;2022-10-31T15:11:22;358.40;2329.60
56123;DHT22;42426;46.104;19.656;2022-10-31T15:13:52;358.40;2329.60
56123;DHT22;42426;46.104;19.656;2022-10-31T15:16:30;358.40;2329.60
56123;DHT22;42426;46.104;19.656;2022-10-31T15:18:59;358.40;2329.60
56123;DHT22;42426;46.104;19.656;2022-10-31T15:21:27;358.40;2329.60
56123;DHT22;42426;46.104;19.656;2022-10-31T15:23:58;358.40;2329.60
56123;DHT22;42426;46.104;19.656;2022-10-31T15:26:33;333.70;2329.60
56123;DHT22;42426;46.104;19.656;2022-10-31T15:29:05;358.40;2329.60
56123;DHT22;42426;46.104;19.656;2022-10-31T15:31:32;333.70;2329.60
56123;DHT22;42426;46.104;19.656;2022-10-31T15:34:15;333.70;2329.60
56123;DHT22;42426;46.104;19.656;2022-10-31T15:36:42;333.70;2329.60
56123;DHT22;42426;46.104;19.656;2022-10-31T15:39:11;333.70;2329.60
56123;DHT22;42426;46.104;19.656;2022-10-31T15:41:58;333.70;2329.60
56123;DHT22;42426;46.104;19.656;2022-10-31T15:44:32;333.60;2329.60
56123;DHT22;42426;46.104;19.656;2022-10-31T15:47:04;333.70;2329.60
56123;DHT22;42426;46.104;19.656;2022-10-31T15:51:56;333.60;2329.60
56123;DHT22;42426;46.104;19.656;2022-10-31T15:54:25;333.60;2329.60
56123;DHT22;42426;46.104;19.656;2022-10-31T15:56:51;333.60;2329.60
56123;DHT22;42426;46.104;19.656;2022-10-31T15:59:24;333.60;2329.60
56123;DHT22;42426;46.104;19.656;2022-10-31T16:02:03;333.60;2329.60
56123;DHT22;42426;46.104;19.656;2022-10-31T16:04:33;333.60;2329.60
56123;DHT22;42426;46.104;19.656;2022-10-31T16:07:15;333.60;2329.60
56123;DHT22;42426;46.104;19.656;2022-10-31T16:10:32;333.60;2329.60
56123;DHT22;42426;46.104;19.656;2022-10-31T16:12:55;333.60;2329.60
56123;DHT22;42426;46.104;19.656;2022-10-31T16:15:21;333.60;2329.60
56123;DHT22;42426;46.104;19.656;2022-10-31T16:17:50;333.60;2329.60
56123;DHT22;42426;46.104;19.656;2022-10-31T16:20:27;333.60;2329.60
56123;DHT22;42426;46.104;19.656;2022-10-31T16:22:55;333.60;2329.60
56123;DHT22;42426;46.104;19.656;2022-10-31T16:25:25;333.60;2329.60
56123;DHT22;42426;46.104;19.656;2022-10-31T16:27:52;333.60;2329.60
56123;DHT22;42426;46.104;19.656;2022-10-31T16:33:32;333.60;2329.60
56123;DHT22;42426;46.104;19.656;2022-10-31T16:38:56;333.50;2329.60
56123;DHT22;42426;46.104;19.656;2022-10-31T16:41:29;333.50;2329.60
56123;DHT22;42426;46.104;19.656;2022-10-31T16:43:54;333.50;2329.60
56123;DHT22;42426;46.104;19.656;2022-10-31T16:46:35;333.50;2329.60
56123;DHT22;42426;46.104;19.656;2022-10-31T16:49:01;333.50;2329.60
56123;DHT22;42426;46.104;19.656;2022-10-31T16:51:29;333.50;2329.60
56123;DHT22;42426;46.104;19.656;2022-10-31T16:53:56;333.40;2329.60
56123;DHT22;42426;46.104;19.656;2022-10-31T16:56:30;333.40;2329.60
56123;DHT22;42426;46.104;19.656;2022-10-31T16:59:00;333.40;2329.60
56123;DHT22;42426;46.104;19.656;2022-10-31T17:01:27;333.40;2329.60
56123;DHT22;42426;46.104;19.656;2022-10-31T17:03:53;333.40;2329.60
56123;DHT22;42426;46.104;19.656;2022-10-31T17:06:19;333.40;2329.60
56123;DHT22;42426;46.104;19.656;2022-10-31T17:08:46;333.40;2329.60
56123;DHT22;42426;46.104;19.656;2022-10-31T17:11:18;333.40;2329.60
56123;DHT22;42426;46.104;19.656;2022-10-31T17:13:50;333.40;2329.60
56123;DHT22;42426;46.104;19.656;2022-10-31T17:16:16;333.40;2329.60
56123;DHT22;42426;46.104;19.656;2022-10-31T17:18:41;333.40;2329.60
56123;DHT22;42426;46.104;19.656;2022-10-31T17:21:22;333.40;2329.60
56123;DHT22;42426;46.104;19.656;2022-10-31T17:23:49;333.40;2329.60
56123;DHT22;42426;46.104;19.656;2022-10-31T17:26:15;333.40;2329.60
56123;DHT22;42426;46.104;19.656;2022-10-31T17:28:41;333.40;2329.60
56123;DHT22;42426;46.104;19.656;2022-10-31T17:31:28;333.40;2329.60
56123;DHT22;42426;46.104;19.656;2022-10-31T17:33:56;333.40;2329.60
56123;DHT22;42426;46.104;19.656;2022-10-31T17:36:22;333.40;2329.60
56123;DHT22;42426;46.104;19.656;2022-10-31T17:38:48;333.40;2329.60
56123;DHT22;42426;46.104;19.656;2022-10-31T17:41:14;333.30;2329.60
56123;DHT22;42426;46.104;19.656;2022-10-31T17:43:39;333.30;2329.60
56123;DHT22;42426;46.104;19.656;2022-10-31T17:46:14;333.30;2329.60
56123;DHT22;42426;46.104;19.656;2022-10-31T17:48:41;333.30;2329.60
56123;DHT22;42426;46.104;19.656;2022-10-31T17:51:07;333.30;2329.60
56123;DHT22;42426;46.104;19.656;2022-10-31T17:53:34;333.30;2329.60
56123;DHT22;42426;46.104;19.656;2022-10-31T17:56:07;333.30;2329.60
56123;DHT22;42426;46.104;19.656;2022-10-31T17:58:34;333.30;2329.60
56123;DHT22;42426;46.104;19.656;2022-10-31T18:01:05;333.30;2329.60